Time;durP1;ratioP1;P1;durP2;ratioP2;P2;SDS_P1;SDS_P2;PMS_P1;PMS_P2;Temp;Humidity;BMP_temperature;BMP_pressure;BME280_temperature;BME280_humidity;BME280_pressure;Samples;Min_cycle;Max_cycle;Signal;HPM_P1;HPM_P2
2023/09/17 00:00:25;;;;;;;16.75;9.68;;;17.80;99.90;;;;;;5109091;28;20566;-70
2023/09/17 00:02:51;;;;;;;14.77;9.73;;;17.80;99.90;;;;;;5097593;28;20107;-70
2023/09/17 00:05:16;;;;;;;17.45;10.15;;;17.80;99.90;;;;;;5093123;28;20020;-70
2023/09/17 00:07:43;;;;;;;15.52;9.60;;;17.90;99.90;;;;;;5099683;28;20132;-71
2023/09/17 00:10:09;;;;;;;19.08;10.00;;;17.90;99.90;;;;;;5104428;28;20118;-70
2023/09/17 00:12:34;;;;;;;14.38;9.82;;;17.90;99.90;;;;;;5111138;28;20035;-70
2023/09/17 00:15:01;;;;;;;15.82;10.40;;;17.90;99.90;;;;;;5109807;28;20031;-70
2023/09/17 00:17:27;;;;;;;16.85;9.90;;;18.00;99.90;;;;;;5111029;28;20039;-71
2023/09/17 00:19:53;;;;;;;14.98;9.75;;;18.00;99.90;;;;;;5109040;28;20081;-70
2023/09/17 00:22:18;;;;;;;14.45;9.70;;;18.00;99.90;;;;;;5109112;28;20138;-70
2023/09/17 00:24:44;;;;;;;16.95;10.15;;;18.10;99.90;;;;;;5108190;28;20038;-71
2023/09/17 00:27:10;;;;;;;15.85;9.30;;;18.20;99.90;;;;;;5111010;28;20027;-70
2023/09/17 00:29:36;;;;;;;13.57;9.02;;;18.20;99.90;;;;;;5107781;28;20039;-70
2023/09/17 00:32:02;;;;;;;14.18;8.90;;;18.20;99.90;;;;;;5108906;28;20460;-70
2023/09/17 00:34:28;;;;;;;14.40;9.45;;;18.30;99.90;;;;;;5108771;28;20034;-70
2023/09/17 00:36:54;;;;;;;14.32;9.15;;;18.20;99.90;;;;;;5108770;28;20031;-70
2023/09/17 00:39:19;;;;;;;17.17;9.57;;;18.00;99.90;;;;;;5107562;28;20032;-70
2023/09/17 00:41:45;;;;;;;17.40;10.48;;;17.90;99.90;;;;;;5109194;28;20028;-71
2023/09/17 00:44:11;;;;;;;16.35;9.32;;;17.90;99.90;;;;;;5109594;28;20670;-70
2023/09/17 00:46:37;;;;;;;15.52;9.90;;;17.80;99.90;;;;;;5108729;28;20104;-70
2023/09/17 00:49:04;;;;;;;16.40;9.77;;;17.80;99.90;;;;;;5107588;28;20872;-70
2023/09/17 00:51:30;;;;;;;24.35;10.18;;;17.80;99.90;;;;;;5110361;28;20050;-70
2023/09/17 00:53:58;;;;;;;16.13;10.10;;;17.70;99.90;;;;;;5108131;28;20031;-70
2023/09/17 00:56:25;;;;;;;16.83;9.43;;;17.80;99.90;;;;;;5108642;28;20032;-70
2023/09/17 00:58:52;;;;;;;17.10;10.70;;;17.80;99.90;;;;;;5105303;28;20035;-70
2023/09/17 01:01:19;;;;;;;16.20;9.45;;;17.80;99.90;;;;;;5107596;28;20031;-70
2023/09/17 01:03:45;;;;;;;15.82;9.88;;;17.80;99.90;;;;;;5107569;28;20067;-71
2023/09/17 01:06:12;;;;;;;15.30;10.05;;;17.70;99.90;;;;;;5108972;28;20493;-70
2023/09/17 01:08:40;;;;;;;15.25;9.63;;;17.70;99.90;;;;;;5108056;28;20389;-70
2023/09/17 01:11:07;;;;;;;16.27;9.85;;;17.80;99.90;;;;;;5107418;28;20798;-70
2023/09/17 01:13:51;;;;;;;16.48;9.57;;;17.80;99.90;;;;;;5108562;28;20043;-70
2023/09/17 01:16:17;;;;;;;13.40;9.32;;;17.80;99.90;;;;;;5108241;28;20118;-69
2023/09/17 01:18:43;;;;;;;14.95;9.52;;;17.80;99.90;;;;;;5103726;28;20119;-71
2023/09/17 01:21:26;;;;;;;14.82;9.48;;;17.80;99.90;;;;;;5107623;28;20107;-69
2023/09/17 01:24:16;;;;;;;16.15;9.80;;;17.80;99.90;;;;;;5106662;28;20387;-69
2023/09/17 01:26:46;;;;;;;18.38;8.93;;;17.70;99.90;;;;;;5108618;28;20384;-72
2023/09/17 01:29:21;;;;;;;;;;;17.60;99.90;;;;;;5088336;28;20100;-70
2023/09/17 01:31:48;;;;;;;13.35;8.95;;;17.50;99.90;;;;;;5105673;28;20393;-69
2023/09/17 01:34:13;;;;;;;15.32;10.00;;;17.50;99.90;;;;;;5100621;28;20040;-69
2023/09/17 01:36:40;;;;;;;16.17;10.18;;;17.40;99.90;;;;;;5105650;28;20132;-69
2023/09/17 01:39:14;;;;;;;17.17;10.57;;;17.40;99.90;;;;;;5106207;28;20040;-69
2023/09/17 01:41:41;;;;;;;17.83;10.27;;;17.30;99.90;;;;;;5100469;28;20027;-69
2023/09/17 01:44:08;;;;;;;16.30;9.98;;;17.30;99.90;;;;;;5107842;28;20111;-69
2023/09/17 01:46:36;;;;;;;18.58;10.70;;;17.30;99.90;;;;;;5109034;28;20517;-69
2023/09/17 01:49:03;;;;;;;15.20;10.13;;;17.30;99.90;;;;;;5105998;28;20100;-71
2023/09/17 01:51:30;;;;;;;15.80;9.80;;;17.20;99.90;;;;;;5107078;28;20432;-69
2023/09/17 01:53:56;;;;;;;16.25;10.15;;;17.20;99.90;;;;;;5106497;28;20392;-70
2023/09/17 01:56:22;;;;;;;18.70;9.48;;;17.20;99.90;;;;;;5105575;28;20051;-69
2023/09/17 01:58:47;;;;;;;14.82;9.43;;;17.20;99.90;;;;;;5105300;28;20067;-69
2023/09/17 02:01:13;;;;;;;17.90;10.32;;;17.30;99.90;;;;;;5107571;28;20447;-70
2023/09/17 02:03:39;;;;;;;15.40;9.88;;;17.30;99.90;;;;;;5106951;28;20073;-69
2023/09/17 02:06:05;;;;;;;22.52;10.27;;;17.20;99.90;;;;;;5102900;28;20453;-70
2023/09/17 02:08:31;;;;;;;16.55;9.90;;;17.10;99.90;;;;;;5105179;28;20067;-69
2023/09/17 02:10:56;;;;;;;14.52;9.43;;;17.10;99.90;;;;;;5106867;28;20437;-70
2023/09/17 02:13:22;;;;;;;15.30;9.27;;;17.20;99.90;;;;;;5105850;28;20032;-70
2023/09/17 02:15:48;;;;;;;16.83;9.57;;;17.20;99.90;;;;;;5106011;28;20032;-69
2023/09/17 02:18:14;;;;;;;18.23;9.93;;;17.20;99.90;;;;;;5107386;28;20061;-70
2023/09/17 02:20:40;;;;;;;16.30;10.10;;;17.10;99.90;;;;;;5104440;28;20126;-70
2023/09/17 02:23:06;;;;;;;16.38;10.35;;;17.00;99.90;;;;;;5081088;28;21785;-71
2023/09/17 02:25:32;;;;;;;17.50;10.25;;;16.90;99.90;;;;;;5106027;28;20027;-69
2023/09/17 02:27:58;;;;;;;17.00;9.88;;;17.00;99.90;;;;;;5106717;28;20118;-69
2023/09/17 02:30:24;;;;;;;17.02;10.45;;;16.90;99.90;;;;;;5103288;28;20395;-69
2023/09/17 02:32:50;;;;;;;17.30;10.27;;;16.80;99.90;;;;;;5106883;28;20028;-70
2023/09/17 02:35:15;;;;;;;17.98;10.77;;;16.70;99.90;;;;;;5105089;28;20486;-69
2023/09/17 02:37:41;;;;;;;15.68;9.98;;;16.60;99.90;;;;;;5106678;28;20035;-71
2023/09/17 02:40:09;;;;;;;16.42;10.20;;;16.60;99.90;;;;;;5107030;28;20118;-70
2023/09/17 02:42:36;;;;;;;21.45;10.25;;;16.70;99.90;;;;;;5107164;28;20042;-70
2023/09/17 02:45:03;;;;;;;17.10;9.85;;;16.70;99.90;;;;;;5106231;28;20035;-68
2023/09/17 02:47:28;;;;;;;17.52;10.13;;;16.80;99.90;;;;;;5103056;28;20081;-71
2023/09/17 02:49:54;;;;;;;15.77;9.43;;;16.80;99.90;;;;;;5101711;28;20180;-69
2023/09/17 02:52:20;;;;;;;18.45;9.70;;;16.90;99.90;;;;;;5107528;28;20028;-70
2023/09/17 02:54:46;;;;;;;16.88;9.95;;;16.90;99.90;;;;;;5106722;28;20023;-70
2023/09/17 02:57:11;;;;;;;15.45;9.55;;;16.90;99.90;;;;;;5102883;28;20148;-69
2023/09/17 02:59:37;;;;;;;18.92;10.10;;;16.90;99.90;;;;;;5107664;28;20368;-69
2023/09/17 03:02:03;;;;;;;16.73;9.95;;;16.90;99.90;;;;;;5102717;28;20020;-69
2023/09/17 03:04:29;;;;;;;14.90;9.23;;;16.90;99.90;;;;;;5104920;28;20031;-70
2023/09/17 03:06:55;;;;;;;16.52;10.00;;;16.90;99.90;;;;;;5102715;28;20032;-70
2023/09/17 03:09:20;;;;;;;16.35;9.65;;;16.90;99.90;;;;;;5103900;28;20039;-70
2023/09/17 03:11:46;;;;;;;19.58;9.40;;;16.90;99.90;;;;;;5104773;28;20168;-70
2023/09/17 03:14:12;;;;;;;21.25;9.95;;;16.90;99.90;;;;;;5107578;28;20063;-70
2023/09/17 03:16:37;;;;;;;14.57;9.30;;;16.90;99.90;;;;;;5104977;28;20024;-69
2023/09/17 03:19:03;;;;;;;16.55;9.10;;;16.90;99.90;;;;;;5103774;28;20092;-70
2023/09/17 03:21:29;;;;;;;13.07;8.95;;;16.90;99.90;;;;;;5106949;28;20020;-70
2023/09/17 03:23:54;;;;;;;15.77;9.52;;;16.80;99.90;;;;;;5105142;28;20391;-69
2023/09/17 03:26:22;;;;;;;17.88;9.43;;;16.70;99.90;;;;;;5104260;28;20038;-70
2023/09/17 03:28:47;;;;;;;15.20;9.35;;;16.70;99.90;;;;;;5105783;28;20031;-69
2023/09/17 03:31:13;;;;;;;16.95;9.45;;;16.70;99.90;;;;;;5106190;28;20027;-70
2023/09/17 03:33:39;;;;;;;17.23;9.38;;;16.70;99.90;;;;;;5105928;28;20114;-71
2023/09/17 03:36:04;;;;;;;15.80;10.10;;;16.70;99.90;;;;;;5100827;28;20036;-70
2023/09/17 03:38:30;;;;;;;17.02;10.25;;;16.70;99.90;;;;;;5109067;28;20036;-70
2023/09/17 03:40:59;;;;;;;16.30;10.18;;;16.60;99.90;;;;;;5108188;28;20026;-70
2023/09/17 03:43:27;;;;;;;19.75;10.80;;;16.60;99.90;;;;;;5110170;28;20027;-70
2023/09/17 03:45:52;;;;;;;19.00;10.50;;;16.60;99.90;;;;;;5095894;28;20574;-70
2023/09/17 03:48:20;;;;;;;18.05;10.15;;;16.60;99.90;;;;;;5104822;28;20055;-70
2023/09/17 03:50:46;;;;;;;15.35;10.60;;;16.60;99.90;;;;;;5104290;28;20031;-69
2023/09/17 03:53:13;;;;;;;21.77;11.02;;;16.50;99.90;;;;;;5110025;28;20050;-70
2023/09/17 03:55:39;;;;;;;17.85;10.48;;;16.40;99.90;;;;;;5111576;28;20023;-70
2023/09/17 03:58:08;;;;;;;17.30;10.40;;;16.40;99.90;;;;;;5106362;28;20380;-69
2023/09/17 04:00:34;;;;;;;19.98;10.43;;;16.40;99.90;;;;;;5106436;28;20032;-69
2023/09/17 04:03:00;;;;;;;14.73;9.80;;;16.40;99.90;;;;;;5106954;28;20034;-69
2023/09/17 04:05:26;;;;;;;19.25;9.98;;;16.40;99.90;;;;;;5110961;28;20107;-70
2023/09/17 04:07:51;;;;;;;16.60;10.05;;;16.40;99.90;;;;;;5105838;28;20092;-69
2023/09/17 04:10:18;;;;;;;15.55;9.57;;;16.40;99.90;;;;;;5111001;28;20542;-69
2023/09/17 04:12:45;;;;;;;17.88;9.45;;;16.40;99.90;;;;;;5110528;28;20024;-70
2023/09/17 04:15:21;;;;;;;13.65;9.15;;;16.30;99.90;;;;;;5110296;28;20028;-70
2023/09/17 04:17:49;;;;;;;17.83;9.65;;;16.30;99.90;;;;;;5101595;28;20673;-69
2023/09/17 04:20:18;;;;;;;19.02;9.60;;;16.30;99.90;;;;;;5102166;28;20446;-70
2023/09/17 04:22:44;;;;;;;15.55;9.43;;;16.30;99.90;;;;;;5097219;28;20036;-69
2023/09/17 04:25:10;;;;;;;16.55;9.48;;;16.20;99.90;;;;;;5104813;28;20022;-69
2023/09/17 04:27:37;;;;;;;14.57;9.02;;;16.20;99.90;;;;;;5103548;28;20391;-69
2023/09/17 04:30:05;;;;;;;19.58;9.70;;;16.20;99.90;;;;;;5096049;27;20111;-71
2023/09/17 04:32:37;;;;;;;15.63;9.35;;;16.20;99.90;;;;;;5087889;28;20051;-70
2023/09/17 04:35:07;;;;;;;15.68;9.60;;;16.20;99.90;;;;;;5096217;28;20024;-70
2023/09/17 04:37:34;;;;;;;17.30;9.85;;;16.20;99.90;;;;;;5103304;28;20100;-70
2023/09/17 04:40:00;;;;;;;20.52;10.75;;;16.10;99.90;;;;;;5107573;28;20032;-70
2023/09/17 04:42:26;;;;;;;16.05;10.40;;;16.10;99.90;;;;;;5102189;28;20036;-70
2023/09/17 04:44:52;;;;;;;16.77;9.98;;;16.10;99.90;;;;;;5104506;28;20387;-71
2023/09/17 04:47:18;;;;;;;16.30;9.45;;;16.10;99.90;;;;;;5105696;27;20044;-71
2023/09/17 04:49:43;;;;;;;17.23;10.20;;;16.10;99.90;;;;;;5108848;28;20093;-70
2023/09/17 04:52:09;;;;;;;15.52;9.43;;;16.00;99.90;;;;;;5098208;28;20889;-70
2023/09/17 04:54:36;;;;;;;15.75;9.55;;;16.00;99.90;;;;;;5108375;28;20071;-70
2023/09/17 04:57:03;;;;;;;16.67;9.98;;;16.10;99.90;;;;;;5107501;28;20020;-69
2023/09/17 04:59:29;;;;;;;16.30;9.77;;;16.00;99.90;;;;;;5106383;28;20112;-69
2023/09/17 05:01:55;;;;;;;19.42;9.80;;;15.90;99.90;;;;;;5104266;28;20460;-71
2023/09/17 05:04:20;;;;;;;13.05;9.13;;;15.90;99.90;;;;;;5107635;28;20076;-71
2023/09/17 05:06:46;;;;;;;15.25;9.20;;;15.90;99.90;;;;;;5104267;28;20027;-70
2023/09/17 05:09:12;;;;;;;15.50;9.20;;;15.90;99.90;;;;;;5109047;28;20047;-69
2023/09/17 05:11:37;;;;;;;14.20;9.55;;;15.90;99.90;;;;;;5108029;28;20455;-69
2023/09/17 05:14:03;;;;;;;19.73;9.95;;;15.90;99.90;;;;;;5104522;28;20036;-69
2023/09/17 05:16:28;;;;;;;20.67;10.23;;;15.90;99.90;;;;;;5107630;28;20107;-69
2023/09/17 05:18:54;;;;;;;15.45;10.50;;;15.90;99.90;;;;;;5103881;28;20035;-71
2023/09/17 05:21:20;;;;;;;16.75;10.38;;;15.90;99.90;;;;;;5104429;27;20422;-70
2023/09/17 05:23:46;;;;;;;16.17;10.35;;;15.90;99.90;;;;;;5107063;27;20028;-70
2023/09/17 05:26:11;;;;;;;14.95;9.52;;;15.90;99.90;;;;;;5097961;28;20819;-70
2023/09/17 05:28:37;;;;;;;16.33;9.35;;;16.00;99.90;;;;;;5105109;28;20035;-69
2023/09/17 05:31:03;;;;;;;16.98;10.27;;;15.90;99.90;;;;;;5107204;28;20096;-70
2023/09/17 05:33:29;;;;;;;13.55;8.98;;;15.90;99.90;;;;;;5104894;28;20076;-70
2023/09/17 05:35:58;;;;;;;16.58;9.85;;;16.00;99.90;;;;;;5099341;28;20020;-70
2023/09/17 05:38:26;;;;;;;16.33;9.48;;;16.00;99.90;;;;;;5097762;27;20030;-70
2023/09/17 05:40:52;;;;;;;14.27;9.00;;;16.10;99.90;;;;;;5101094;27;20036;-70
2023/09/17 05:43:18;;;;;;;18.23;9.10;;;16.10;99.90;;;;;;5098627;28;20031;-70
2023/09/17 05:45:43;;;;;;;13.40;9.40;;;16.20;99.90;;;;;;5101095;28;20028;-69
2023/09/17 05:48:09;;;;;;;14.45;9.32;;;16.30;99.90;;;;;;5105753;28;20105;-71
2023/09/17 05:50:34;;;;;;;19.70;9.32;;;16.40;99.90;;;;;;5106113;28;20383;-69
2023/09/17 05:53:00;;;;;;;12.80;8.77;;;16.40;99.90;;;;;;5107992;28;20035;-71
2023/09/17 05:55:26;;;;;;;13.48;8.95;;;16.40;99.90;;;;;;5107088;28;20023;-70
2023/09/17 05:57:51;;;;;;;13.52;9.10;;;16.30;99.90;;;;;;5109286;28;20039;-70
2023/09/17 06:00:17;;;;;;;15.52;9.10;;;16.30;99.90;;;;;;5105058;28;20338;-70
2023/09/17 06:02:43;;;;;;;17.25;9.32;;;16.20;99.90;;;;;;5109255;28;20491;-70
2023/09/17 06:05:09;;;;;;;14.45;9.20;;;16.20;99.90;;;;;;5103696;28;20361;-71
2023/09/17 06:07:35;;;;;;;15.95;9.27;;;16.10;99.90;;;;;;5099104;28;20034;-71
2023/09/17 06:10:00;;;;;;;16.15;9.55;;;16.10;99.90;;;;;;5105966;28;20053;-70
2023/09/17 06:12:26;;;;;;;13.07;8.50;;;16.20;99.90;;;;;;5093700;28;20110;-69
2023/09/17 06:14:52;;;;;;;16.00;9.32;;;16.20;99.90;;;;;;5095405;28;20032;-70
2023/09/17 06:17:17;;;;;;;13.52;9.38;;;16.30;99.90;;;;;;5105353;28;20084;-70
2023/09/17 06:19:43;;;;;;;14.32;8.95;;;16.40;99.90;;;;;;5107952;28;20043;-70
2023/09/17 06:22:11;;;;;;;15.23;8.80;;;16.40;99.90;;;;;;5106737;28;20200;-70
2023/09/17 06:24:37;;;;;;;15.00;9.13;;;16.40;99.90;;;;;;5107593;28;20791;-70
2023/09/17 06:27:03;;;;;;;17.13;9.90;;;16.50;99.90;;;;;;5103408;28;20036;-71
2023/09/17 06:29:29;;;;;;;13.38;9.10;;;16.50;99.90;;;;;;5106900;28;20511;-70
2023/09/17 06:31:55;;;;;;;15.88;9.85;;;16.50;99.90;;;;;;5096350;28;20073;-69
2023/09/17 06:34:21;;;;;;;16.80;10.23;;;16.50;99.90;;;;;;5089407;28;20770;-69
2023/09/17 06:36:47;;;;;;;22.45;10.52;;;16.50;99.90;;;;;;5088195;28;20024;-70
2023/09/17 06:39:13;;;;;;;15.80;9.10;;;16.50;99.90;;;;;;5087644;28;20090;-69
2023/09/17 06:41:39;;;;;;;18.25;10.38;;;16.50;99.90;;;;;;5100317;28;20032;-69
2023/09/17 06:44:05;;;;;;;16.55;11.10;;;16.50;99.90;;;;;;5106390;28;20042;-70
2023/09/17 06:46:31;;;;;;;15.13;10.10;;;16.60;99.90;;;;;;5094484;28;20384;-70
2023/09/17 06:48:56;;;;;;;16.55;10.18;;;16.70;99.90;;;;;;5102109;28;20072;-70
2023/09/17 06:51:22;;;;;;;16.88;10.13;;;16.70;99.90;;;;;;5103705;28;20468;-69
2023/09/17 06:53:47;;;;;;;15.27;9.90;;;16.80;99.90;;;;;;5100508;28;20028;-69
2023/09/17 06:56:14;;;;;;;16.55;10.38;;;16.90;99.90;;;;;;5087405;28;20369;-69
2023/09/17 06:58:40;;;;;;;16.83;8.85;;;17.10;99.90;;;;;;5104797;28;20139;-69
2023/09/17 07:01:07;;;;;;;13.65;8.65;;;17.30;99.90;;;;;;5097402;28;20123;-69
2023/09/17 07:03:32;;;;;;;18.98;10.15;;;17.50;99.90;;;;;;5091926;28;20105;-69
2023/09/17 07:05:59;;;;;;;17.05;10.80;;;17.60;99.90;;;;;;5078182;28;20077;-71
2023/09/17 07:08:25;;;;;;;14.85;9.80;;;17.50;99.90;;;;;;5101362;28;20304;-70
2023/09/17 07:10:51;;;;;;;16.20;9.70;;;17.40;99.90;;;;;;5105495;28;20043;-70
2023/09/17 07:13:16;;;;;;;17.15;10.38;;;17.50;99.90;;;;;;5109784;28;20615;-70
2023/09/17 07:15:44;;;;;;;15.60;10.13;;;17.70;99.90;;;;;;5107201;28;20761;-70
2023/09/17 07:18:10;;;;;;;24.75;10.80;;;17.80;99.90;;;;;;5106789;28;20039;-71
2023/09/17 07:20:37;;;;;;;18.05;11.07;;;17.90;99.90;;;;;;5106060;28;20032;-70
2023/09/17 07:23:03;;;;;;;18.98;10.98;;;18.10;99.90;;;;;;5108692;28;20093;-71
2023/09/17 07:25:28;;;;;;;15.57;10.07;;;18.30;99.90;;;;;;5107447;28;20032;-70
2023/09/17 07:27:54;;;;;;;20.90;11.25;;;18.50;99.90;;;;;;5104464;28;20043;-70
2023/09/17 07:30:20;;;;;;;16.35;10.50;;;18.70;99.90;;;;;;5103565;28;20042;-69
2023/09/17 07:32:46;;;;;;;17.77;10.15;;;18.80;99.90;;;;;;5092203;28;20475;-70
2023/09/17 07:35:11;;;;;;;15.82;10.13;;;19.00;99.90;;;;;;5104951;28;20088;-71
2023/09/17 07:37:37;;;;;;;16.92;10.70;;;19.10;99.90;;;;;;5117697;27;20060;-70
2023/09/17 07:40:05;;;;;;;16.38;10.52;;;19.30;99.90;;;;;;5108588;27;20387;-71
2023/09/17 07:42:31;;;;;;;18.48;11.10;;;19.50;99.90;;;;;;5107202;28;20031;-71
2023/09/17 07:44:57;;;;;;;15.55;10.50;;;19.70;99.90;;;;;;5091247;28;20391;-69
2023/09/17 07:47:23;;;;;;;16.48;10.95;;;19.80;99.90;;;;;;5092110;28;20982;-69
2023/09/17 07:49:48;;;;;;;17.92;10.63;;;20.10;99.90;;;;;;5107812;28;20109;-69
2023/09/17 07:52:14;;;;;;;20.65;10.23;;;20.30;99.90;;;;;;5107236;28;20043;-69
2023/09/17 07:54:41;;;;;;;20.63;11.05;;;20.50;99.90;;;;;;5106441;28;20239;-69
2023/09/17 07:57:10;;;;;;;17.90;10.57;;;20.70;99.90;;;;;;5105758;28;20028;-69
2023/09/17 07:59:35;;;;;;;13.70;9.30;;;20.90;99.90;;;;;;5108969;28;20022;-69
2023/09/17 08:02:02;;;;;;;13.70;8.98;;;21.10;99.90;;;;;;5098975;28;20031;-71
2023/09/17 08:04:28;;;;;;;19.80;10.30;;;21.20;99.90;;;;;;5107382;28;20026;-70
2023/09/17 08:06:54;;;;;;;19.52;9.60;;;21.30;99.90;;;;;;5107200;28;20395;-69
2023/09/17 08:09:20;;;;;;;15.43;9.00;;;21.40;99.90;;;;;;5107461;28;20046;-69
2023/09/17 08:11:46;;;;;;;13.98;8.77;;;21.50;99.90;;;;;;5099362;28;20035;-69
2023/09/17 08:14:14;;;;;;;11.82;8.23;;;21.60;99.90;;;;;;5107567;28;20047;-71
2023/09/17 08:16:40;;;;;;;14.52;9.52;;;21.60;99.90;;;;;;5108763;28;20073;-70
2023/09/17 08:19:07;;;;;;;17.42;10.05;;;21.80;99.90;;;;;;5110135;28;20702;-72
2023/09/17 08:21:33;;;;;;;14.60;10.02;;;21.90;99.90;;;;;;5094869;28;20171;-69
2023/09/17 08:23:59;;;;;;;13.35;9.52;;;22.00;99.90;;;;;;5105113;28;20061;-71
2023/09/17 08:26:29;;;;;;;14.43;9.65;;;22.10;99.90;;;;;;5110411;28;20476;-70
2023/09/17 08:28:56;;;;;;;13.48;8.77;;;22.20;99.90;;;;;;5111231;28;20039;-71
2023/09/17 08:31:22;;;;;;;14.93;8.82;;;22.30;99.90;;;;;;5110304;28;20023;-71
2023/09/17 08:33:48;;;;;;;12.13;8.10;;;22.40;99.90;;;;;;5101260;28;20094;-71
2023/09/17 08:36:14;;;;;;;11.57;8.07;;;22.50;99.90;;;;;;5100111;28;20032;-71
2023/09/17 08:38:40;;;;;;;13.60;7.70;;;22.60;99.90;;;;;;5110679;28;20035;-71
2023/09/17 08:41:07;;;;;;;12.20;7.85;;;22.60;99.90;;;;;;5108889;28;20079;-71
2023/09/17 08:43:33;;;;;;;10.60;7.05;;;22.60;99.90;;;;;;5110581;28;20027;-71
2023/09/17 08:46:03;;;;;;;11.57;7.28;;;22.60;99.90;;;;;;5110392;28;20100;-71
2023/09/17 08:48:29;;;;;;;9.65;7.03;;;22.70;99.90;;;;;;5109914;28;20060;-71
2023/09/17 08:50:57;;;;;;;10.35;6.78;;;22.70;99.90;;;;;;5108496;28;20028;-71
2023/09/17 08:53:30;;;;;;;9.35;6.88;;;22.70;99.90;;;;;;5107401;28;20628;-71
2023/09/17 08:55:57;;;;;;;12.25;6.75;;;22.80;99.90;;;;;;5110742;28;20062;-70
2023/09/17 08:58:31;;;;;;;11.40;7.30;;;22.80;99.90;;;;;;5109788;28;20111;-71
2023/09/17 09:01:03;;;;;;;9.13;7.20;;;22.90;99.90;;;;;;5109262;28;20050;-71
2023/09/17 09:03:33;;;;;;;16.85;7.65;;;22.90;99.90;;;;;;5107956;28;20027;-70
2023/09/17 09:06:00;;;;;;;11.77;7.95;;;23.00;99.90;;;;;;5110228;28;20442;-70
2023/09/17 09:08:26;;;;;;;10.75;7.53;;;23.00;99.90;;;;;;5109111;28;20039;-70
2023/09/17 09:10:51;;;;;;;13.02;8.55;;;23.20;99.90;;;;;;5108481;28;20031;-71
2023/09/17 09:13:18;;;;;;;13.35;8.23;;;23.30;99.90;;;;;;5106597;28;20055;-70
2023/09/17 09:15:45;;;;;;;11.85;7.60;;;23.30;99.90;;;;;;5109613;28;20350;-70
2023/09/17 09:18:11;;;;;;;17.75;7.88;;;23.40;99.90;;;;;;5107330;28;20039;-70
2023/09/17 09:20:38;;;;;;;13.60;7.88;;;23.50;99.90;;;;;;5106621;28;20031;-70
2023/09/17 09:23:05;;;;;;;11.80;6.93;;;23.50;99.90;;;;;;5108170;28;20039;-70
2023/09/17 09:25:31;;;;;;;9.98;6.35;;;23.60;99.90;;;;;;5088705;28;20020;-70
2023/09/17 09:28:01;;;;;;;10.40;6.70;;;23.80;99.90;;;;;;5104015;28;20040;-71
2023/09/17 09:30:28;;;;;;;9.35;6.35;;;23.80;99.90;;;;;;5096884;28;20650;-71
2023/09/17 09:32:54;;;;;;;11.02;7.18;;;24.00;99.90;;;;;;5106014;28;20063;-71
2023/09/17 09:35:20;;;;;;;11.43;6.45;;;24.00;99.90;;;;;;5108623;28;20023;-69
2023/09/17 09:37:47;;;;;;;8.30;6.13;;;24.00;99.90;;;;;;5103799;28;20023;-70
2023/09/17 09:40:14;;;;;;;10.27;6.38;;;24.10;99.90;;;;;;5099720;28;20024;-70
2023/09/17 09:42:42;;;;;;;12.05;6.03;;;24.20;99.90;;;;;;5108764;28;20039;-70
2023/09/17 09:45:15;;;;;;;8.88;6.25;;;24.20;99.90;;;;;;5108767;28;20468;-71
2023/09/17 09:47:47;;;;;;;10.95;5.85;;;24.30;99.90;;;;;;5108239;28;20446;-70
2023/09/17 09:50:27;;;;;;;8.57;5.88;;;24.40;99.90;;;;;;5106742;28;20479;-69
2023/09/17 09:52:54;;;;;;;8.82;5.10;;;24.60;99.90;;;;;;5089036;28;20354;-69
2023/09/17 09:55:27;;;;;;;9.30;4.97;;;24.60;99.90;;;;;;5088066;28;20036;-69
2023/09/17 09:57:53;;;;;;;8.70;5.53;;;24.70;99.90;;;;;;5088870;28;20076;-69
2023/09/17 10:00:28;;;;;;;9.77;5.10;;;24.90;99.90;;;;;;5095086;28;20511;-70
2023/09/17 10:02:55;;;;;;;9.35;4.82;;;25.10;99.90;;;;;;5106002;28;20422;-70
2023/09/17 10:05:34;;;;;;;5.97;4.85;;;25.20;99.90;;;;;;5107878;28;20066;-70
2023/09/17 10:08:04;;;;;;;11.10;4.65;;;25.50;99.90;;;;;;5109209;28;20470;-70
2023/09/17 10:10:30;;;;;;;9.52;4.90;;;25.70;99.90;;;;;;5106671;28;20035;-70
2023/09/17 10:12:56;;;;;;;9.85;4.00;;;25.80;99.90;;;;;;5108398;28;20750;-70
2023/09/17 10:15:22;;;;;;;7.28;4.75;;;25.80;99.90;;;;;;5107785;28;20039;-70
2023/09/17 10:17:49;;;;;;;5.15;3.60;;;25.90;99.90;;;;;;5108740;28;20032;-69
2023/09/17 10:20:17;;;;;;;6.20;4.28;;;26.10;99.90;;;;;;5108253;28;20031;-70
2023/09/17 10:22:43;;;;;;;6.20;4.57;;;26.00;99.90;;;;;;5107323;28;20094;-69
2023/09/17 10:25:11;;;;;;;7.03;4.22;;;26.00;99.90;;;;;;5107732;28;20023;-70
2023/09/17 10:27:37;;;;;;;4.75;3.58;;;26.20;99.90;;;;;;5108885;28;20024;-69
2023/09/17 10:30:04;;;;;;;10.00;3.70;;;26.40;99.90;;;;;;5108842;28;20109;-69
2023/09/17 10:32:32;;;;;;;7.63;3.80;;;26.30;99.90;;;;;;5108075;28;20194;-69
2023/09/17 10:35:00;;;;;;;6.22;3.30;;;26.40;99.90;;;;;;5105093;28;20115;-70
2023/09/17 10:37:29;;;;;;;8.57;3.10;;;26.80;99.90;;;;;;5107932;28;20088;-70
2023/09/17 10:39:57;;;;;;;9.33;3.03;;;26.90;99.90;;;;;;5107545;28;20407;-69
2023/09/17 10:42:25;;;;;;;8.70;2.95;;;26.80;99.90;;;;;;5107023;28;20753;-70
2023/09/17 10:44:55;;;;;;;11.15;3.28;;;26.80;99.90;;;;;;5106438;28;20110;-70
2023/09/17 10:47:21;;;;;;;;;;;27.20;99.90;;;;;;5109330;28;20071;-69
2023/09/17 10:49:47;;;;;;;8.40;3.08;;;27.30;99.90;;;;;;5112677;28;19939;-70
2023/09/17 10:52:14;;;;;;;5.90;3.25;;;27.40;99.90;;;;;;5110775;28;20088;-70
2023/09/17 10:54:40;;;;;;;6.95;3.22;;;27.70;99.90;;;;;;5111580;28;20023;-70
2023/09/17 10:57:14;;;;;;;10.88;3.17;;;27.90;99.90;;;;;;5110040;28;20024;-69
2023/09/17 10:59:40;;;;;;;6.93;3.30;;;27.80;99.90;;;;;;5112413;28;20380;-70
2023/09/17 11:02:08;;;;;;;15.80;3.33;;;27.60;99.90;;;;;;5112652;28;20020;-70
2023/09/17 11:04:34;;;;;;;7.15;3.20;;;27.60;99.90;;;;;;5110872;28;20028;-71
2023/09/17 11:07:03;;;;;;;12.15;3.25;;;27.70;99.90;;;;;;5111317;28;20047;-70
2023/09/17 11:09:29;;;;;;;11.73;3.58;;;27.80;99.50;;;;;;5111248;28;20028;-70
2023/09/17 11:11:55;;;;;;;8.68;2.92;;;28.00;99.80;;;;;;5110806;28;20499;-70
2023/09/17 11:14:21;;;;;;;14.68;3.80;;;28.40;99.00;;;;;;5108891;28;20032;-69
2023/09/17 11:16:49;;;;;;;8.13;3.10;;;28.50;97.80;;;;;;5110472;28;20031;-70
2023/09/17 11:19:16;;;;;;;7.55;2.90;;;28.50;98.20;;;;;;5111412;28;20047;-70
2023/09/17 11:21:47;;;;;;;6.38;3.17;;;28.40;99.50;;;;;;5112202;28;20110;-70
2023/09/17 11:24:13;;;;;;;8.70;3.17;;;28.30;98.60;;;;;;5111651;28;20134;-70
2023/09/17 11:26:42;;;;;;;9.77;3.05;;;28.30;98.90;;;;;;5109193;28;20032;-70
2023/09/17 11:29:10;;;;;;;8.30;3.05;;;28.40;98.30;;;;;;5104607;28;20498;-70
2023/09/17 11:31:59;;;;;;;6.82;2.70;;;28.50;97.60;;;;;;5110300;28;20031;-70
2023/09/17 11:34:25;;;;;;;5.03;2.40;;;28.80;96.10;;;;;;5104435;28;20137;-70
2023/09/17 11:36:52;;;;;;;7.38;2.92;;;29.10;96.00;;;;;;5108148;28;20103;-70
2023/09/17 11:39:21;;;;;;;5.90;2.65;;;29.40;96.40;;;;;;5109882;28;20035;-70
2023/09/17 11:41:54;;;;;;;50.30;26.20;;;29.60;95.30;;;;;;5111626;28;20042;-69
2023/09/17 11:44:23;;;;;;;9.63;3.75;;;29.50;95.30;;;;;;5108281;28;20027;-69
2023/09/17 11:46:49;;;;;;;10.98;3.10;;;28.90;95.30;;;;;;5109756;28;20499;-70
2023/09/17 11:49:15;;;;;;;6.57;2.80;;;28.80;95.30;;;;;;5099186;28;20052;-69
2023/09/17 11:51:46;;;;;;;9.18;2.70;;;29.00;97.00;;;;;;5100881;28;20028;-70
2023/09/17 11:54:20;;;;;;;7.45;2.90;;;29.40;96.10;;;;;;5110295;28;20066;-70
2023/09/17 11:56:49;;;;;;;7.28;2.83;;;29.50;95.30;;;;;;5110612;28;20110;-70
2023/09/17 11:59:18;;;;;;;8.63;2.63;;;29.70;94.90;;;;;;5098634;28;20110;-70
2023/09/17 12:01:46;;;;;;;6.53;2.55;;;29.60;93.80;;;;;;5091266;28;20821;-70
2023/09/17 12:04:13;;;;;;;5.95;2.90;;;29.70;95.10;;;;;;5105326;28;20066;-69
2023/09/17 12:06:40;;;;;;;8.45;2.85;;;29.80;96.00;;;;;;5108843;28;20061;-70
2023/09/17 12:09:21;;;;;;;8.27;2.90;;;29.60;94.50;;;;;;5090662;28;20093;-69
2023/09/17 12:11:48;;;;;;;18.10;3.38;;;29.50;95.90;;;;;;5109999;28;20035;-70
2023/09/17 12:14:14;;;;;;;8.23;3.70;;;29.10;93.50;;;;;;5106538;28;20134;-70
2023/09/17 12:16:40;;;;;;;8.75;3.03;;;29.10;95.50;;;;;;5110833;28;20115;-70
2023/09/17 12:19:07;;;;;;;7.07;3.10;;;29.20;97.40;;;;;;5099047;28;20434;-70
2023/09/17 12:21:40;;;;;;;12.05;3.53;;;29.20;96.30;;;;;;5101497;28;20042;-70
2023/09/17 12:24:10;;;;;;;7.70;3.10;;;29.20;94.30;;;;;;5104706;28;20027;-70
2023/09/17 12:26:54;;;;;;;10.05;3.15;;;29.00;95.80;;;;;;5109153;27;20054;-69
2023/09/17 12:29:21;;;;;;;10.38;3.00;;;29.30;95.70;;;;;;5104678;28;20039;-69
2023/09/17 12:31:47;;;;;;;12.75;3.15;;;29.50;95.60;;;;;;5110734;28;20023;-71
2023/09/17 12:34:12;;;;;;;7.85;3.03;;;29.50;95.90;;;;;;5108130;28;20023;-70